M I D A S
Marine Information and Data Acquisition System
Tripno 295 of the Zeeleeuw from 2002-07-09 03:19:21 to 2002-07-09 13:30:00
Back to CruiseResearch ActivitiesStationsMapUnderway DataData graphs

EquipmentUnitsComments
TimeDGPSUTC
LatitudeDGPSDM.mWGS84
LongitudeDGPSDM.mWGS84
SpeedMeteo Stationm/sRelative wind speed
DirectionMeteo StationdegRelative wind direction
TemperatureMeteo Stationdeg CelciusAir temperature
PressureMeteo StationPaAtmospheric pressure
HumidityMeteo Station%Relative humidity
Missing or incorrect values are displayed as -999
Metereological data collected by the RV Zeeleeuw from 2002-07-09 03:19:21 to 2002-07-09 13:30:00
Time Latitude Longitude Speed Direction Temperature Pressure Humidity
2002-07-09 03:20 51°14.397 2°54.991 1.7 217 16 100670 92
2002-07-09 03:21 51°14.553 2°54.82 3.5 196 16 100670 92
2002-07-09 03:22 51°14.74 2°54.676 4.9 214 16 100670 92
2002-07-09 03:23 51°14.94 2°54.51 5.3 221 16 100670 92
2002-07-09 03:24 51°15.133 2°54.353 5.2 216 16 100670 92
2002-07-09 03:25 51°15.338 2°54.188 5.6 210 16 100670 92
2002-07-09 03:26 51°15.548 2°54.014 4.5 204 16 100670 92
2002-07-09 03:27 51°15.762 2°53.843 4.8 208 16 100660 92
2002-07-09 03:28 51°15.972 2°53.658 4.3 206 16 100660 92
2002-07-09 03:29 51°16.175 2°53.451 5.3 209 16.1 100660 92
2002-07-09 03:30 51°16.38 2°53.248 5 209 16.1 100660 92
2002-07-09 03:31 51°16.583 2°53.046 4.2 204 16.1 100660 92
2002-07-09 03:32 51°16.786 2°52.846 4.6 205 16.1 100660 92
2002-07-09 03:33 51°16.987 2°52.653 4.7 208 16.1 100660 92
2002-07-09 03:34 51°17.199 2°52.47 4.7 201 16.2 100660 92
2002-07-09 03:35 51°17.414 2°52.3 4.9 208 16.2 100660 92
2002-07-09 03:36 51°17.632 2°52.14 4.1 199 16.2 100660 92
2002-07-09 03:37 51°17.852 2°51.994 4.9 192 16.3 100650 92
2002-07-09 03:38 51°18.073 2°51.865 5.5 199 16.3 100650 92
2002-07-09 03:39 51°18.304 2°51.735 6.2 205 16.3 100650 92
2002-07-09 03:40 51°18.528 2°51.613 6.1 200 16.4 100640 92
2002-07-09 03:41 51°18.762 2°51.502 5.4 203 16.4 100650 92
2002-07-09 03:42 51°18.987 2°51.391 5.4 205 16.4 100650 92
2002-07-09 03:43 51°19.217 2°51.281 5.8 204 16.5 100650 92
2002-07-09 03:44 51°19.45 2°51.171 6 212 16.5 100650 92
2002-07-09 03:45 51°19.684 2°51.058 5.4 214 16.5 100660 92
2002-07-09 03:46 51°19.912 2°50.945 4.9 218 16.6 100660 92
2002-07-09 03:47 51°20.143 2°50.829 5.2 213 16.6 100670 92
2002-07-09 03:48 51°20.377 2°50.714 5 212 16.6 100660 92
2002-07-09 03:49 51°20.61 2°50.597 5.2 209 16.7 100660 92
2002-07-09 03:50 51°20.836 2°50.484 5.7 210 16.7 100660 92
2002-07-09 03:51 51°21.066 2°50.372 5.5 215 16.7 100670 92
2002-07-09 03:52 51°21.297 2°50.264 5.1 210 16.7 100670 92
2002-07-09 03:53 51°21.528 2°50.154 5.2 208 16.7 100670 92
2002-07-09 03:54 51°21.761 2°50.057 5.9 207 16.7 100670 92
2002-07-09 03:55 51°21.994 2°49.959 5.4 207 16.7 100670 92
2002-07-09 03:56 51°22.227 2°49.859 3.3 202 16.7 100670 92
2002-07-09 03:57 51°22.461 2°49.758 5 205 16.7 100670 92
2002-07-09 03:58 51°22.69 2°49.658 4.9 204 16.7 100670 92
2002-07-09 03:59 51°22.921 2°49.559 5.2 205 16.7 100670 92
2002-07-09 04:00 51°23.154 2°49.459 5.2 206 16.7 100670 92
2002-07-09 04:01 51°23.385 2°49.358 5.5 209 16.7 100670 92
2002-07-09 04:02 51°23.614 2°49.259 4.9 209 16.7 100670 92
2002-07-09 04:03 51°23.845 2°49.158 5.3 210 16.7 100670 92
2002-07-09 04:04 51°24.082 2°49.055 6 216 16.6 100670 92
2002-07-09 04:05 51°24.314 2°48.952 5.8 213 16.6 100670 92
2002-07-09 04:06 51°24.545 2°48.845 5.5 214 16.6 100670 92
2002-07-09 04:07 51°24.773 2°48.741 5.6 212 16.6 100670 92
2002-07-09 04:08 51°25.009 2°48.686 6.2 212 16.6 100670 92
2002-07-09 04:09 51°25.25 2°48.645 6.4 210 16.6 100670 92
2002-07-09 04:10 51°25.491 2°48.602 5.9 207 16.6 100670 92
2002-07-09 04:11 51°25.711 2°48.562 4.6 195 16.6 100670 92
2002-07-09 04:12 51°25.843 2°48.548 3.5 168 16.6 100670 92
2002-07-09 04:13 51°25.93 2°48.562 3.4 158 16.6 100670 92
2002-07-09 04:14 51°25.999 2°48.588 3.7 156 16.6 100670 92
2002-07-09 04:15 51°26.052 2°48.616 3.9 162 16.6 100660 92
2002-07-09 04:16 51°26.097 2°48.644 3.7 155 16.6 100670 92
2002-07-09 04:17 51°26.136 2°48.672 3.9 157 16.5 100660 92
2002-07-09 04:18 51°26.172 2°48.702 3.6 158 16.6 100660 92
2002-07-09 04:19 51°26.205 2°48.732 3.9 162 16.6 100660 92
2002-07-09 04:20 51°26.236 2°48.761 4.2 160 16.6 100660 92
2002-07-09 04:21 51°26.261 2°48.784 4 159 16.6 100660 92
2002-07-09 04:22 51°26.282 2°48.803 3.9 153 16.6 100660 92
2002-07-09 04:23 51°26.299 2°48.817 3.8 157 16.6 100660 92
2002-07-09 04:24 51°26.315 2°48.828 3.3 149 16.6 100660 92
2002-07-09 04:25 51°26.328 2°48.838 3.6 151 16.5 100660 92
2002-07-09 04:26 51°26.34 2°48.845 3.6 152 16.6 100670 92
2002-07-09 04:27 51°26.35 2°48.85 3.6 152 16.5 100660 92
2002-07-09 04:28 51°26.359 2°48.855 3.6 160 16.5 100670 92
2002-07-09 04:29 51°26.367 2°48.859 3.4 154 16.5 100670 92
2002-07-09 04:30 51°26.374 2°48.863 3.9 154 16.5 100660 92
2002-07-09 04:31 51°26.382 2°48.873 4.3 168 16.5 100660 92
2002-07-09 04:32 51°26.384 2°48.888 4.3 188 16.5 100660 92
2002-07-09 04:33 51°26.378 2°48.902 4.2 208 16.5 100660 92
2002-07-09 04:34 51°26.366 2°48.91 4.5 227 16.5 100660 92
2002-07-09 04:35 51°26.348 2°48.908 4.8 248 16.5 100660 92
2002-07-09 04:36 51°26.328 2°48.892 4.8 274 16.5 100660 92
2002-07-09 04:37 51°26.306 2°48.865 5.1 277 16.5 100660 92
2002-07-09 04:38 51°26.283 2°48.832 4.9 278 16.4 100660 92
2002-07-09 04:39 51°26.259 2°48.796 4.9 279 16.4 100660 92
2002-07-09 04:40 51°26.233 2°48.757 5.3 278 16.4 100660 92
2002-07-09 04:41 51°26.208 2°48.718 4.5 277 16.4 100650 92
2002-07-09 04:42 51°26.186 2°48.683 4 282 16.4 100650 92
2002-07-09 04:43 51°26.165 2°48.648 4.1 279 16.4 100650 92
2002-07-09 04:44 51°26.147 2°48.617 3.9 280 16.3 100650 92
2002-07-09 04:45 51°26.13 2°48.585 3.9 277 16.3 100650 92
2002-07-09 04:46 51°26.115 2°48.555 4.3 274 16.3 100650 92
2002-07-09 04:47 51°26.096 2°48.522 4.9 274 16.3 100650 92
2002-07-09 04:48 51°26.076 2°48.489 4.6 279 16.3 100640 92
2002-07-09 04:49 51°26.055 2°48.454 4.3 267 16.3 100640 92
2002-07-09 04:50 51°26.02 2°48.44 5.8 217 16.3 100640 92
2002-07-09 04:51 51°25.997 2°48.476 3.8 156 16.3 100640 92
2002-07-09 04:52 51°25.99 2°48.454 3.9 147 16.3 100640 92
2002-07-09 04:53 51°25.986 2°48.442 3.7 139 16.3 100640 92
2002-07-09 04:54 51°25.985 2°48.434 2.9 127 16.3 100640 92
2002-07-09 04:55 51°25.991 2°48.43 3.2 113 16.3 100640 92
2002-07-09 04:56 51°26 2°48.43 3.3 132 16.3 100640 92
2002-07-09 04:57 51°26.007 2°48.44 4.1 141 16.3 100650 92
2002-07-09 04:58 51°26.012 2°48.451 3.1 131 16.3 100640 92
2002-07-09 04:59 51°26.02 2°48.458 3.5 118 16.3 100650 92
2002-07-09 05:00 51°26.029 2°48.459 2.9 110 16.3 100650 92
2002-07-09 05:01 51°26.037 2°48.455 3.6 99 16.3 100650 92
2002-07-09 05:02 51°26.041 2°48.447 3.7 117 16.3 100650 92
2002-07-09 05:03 51°26.041 2°48.435 3.9 122 16.3 100650 92
2002-07-09 05:04 51°26.04 2°48.419 3.9 133 16.3 100650 92
2002-07-09 05:05 51°26.038 2°48.401 4.4 134 16.3 100660 92
2002-07-09 05:06 51°26.036 2°48.383 5.1 141 16.3 100650 92
2002-07-09 05:07 51°26.032 2°48.381 5.1 152 16.3 100660 92
2002-07-09 05:08 51°26.025 2°48.39 5.7 155 16.4 100650 92
2002-07-09 05:09 51°26.016 2°48.407 5.3 163 16.4 100650 92
2002-07-09 05:10 51°26.005 2°48.428 4.9 160 16.4 100660 93
2002-07-09 05:11 51°25.999 2°48.452 5.2 144 16.5 100650 93
2002-07-09 05:12 51°25.996 2°48.477 5.3 147 16.4 100650 93
2002-07-09 05:13 51°25.995 2°48.496 4.7 131 16.5 100660 92
2002-07-09 05:14 51°25.996 2°48.508 5.5 127 16.5 100660 92
2002-07-09 05:15 51°25.998 2°48.514 5.1 119 16.5 100650 92
2002-07-09 05:16 51°25.999 2°48.516 5.8 126 16.5 100660 92
2002-07-09 05:17 51°25.999 2°48.514 5.6 125 16.5 100660 92
2002-07-09 05:18 51°25.997 2°48.51 5.8 122 16.5 100660 92
2002-07-09 05:19 51°25.995 2°48.503 4.1 121 16.5 100650 92
2002-07-09 05:20 51°25.99 2°48.495 3.8 125 16.5 100650 92
2002-07-09 05:21 51°25.986 2°48.486 4.8 126 16.5 100650 92
2002-07-09 05:22 51°25.98 2°48.475 4.2 125 16.5 100650 92
2002-07-09 05:23 51°25.974 2°48.464 5 125 16.5 100640 92
2002-07-09 05:24 51°25.968 2°48.452 5.3 119 16.5 100650 92
2002-07-09 05:25 51°25.961 2°48.44 5 124 16.5 100650 92
2002-07-09 05:26 51°25.954 2°48.431 5.2 119 16.5 100650 92
2002-07-09 05:27 51°25.948 2°48.426 6.6 121 16.6 100650 92
2002-07-09 05:28 51°25.942 2°48.423 6 121 16.6 100650 93
2002-07-09 05:29 51°25.939 2°48.422 6.6 111 16.6 100640 93
2002-07-09 05:30 51°25.937 2°48.422 5.7 104 16.6 100640 93
2002-07-09 05:31 51°25.94 2°48.423 5.8 90 16.6 100640 93
2002-07-09 05:32 51°25.947 2°48.422 6 82 16.6 100640 93
2002-07-09 05:33 51°25.958 2°48.42 6.1 81 16.6 100640 93
2002-07-09 05:34 51°25.971 2°48.418 6.4 80 16.6 100650 93
2002-07-09 05:35 51°25.985 2°48.419 6.2 88 16.6 100640 93
2002-07-09 05:36 51°25.995 2°48.419 6.2 98 16.6 100640 93
2002-07-09 05:49 51°27.433 2°48.184 1.7 265 16.7 100640 92
2002-07-09 05:51 51°27.809 2°48.137 1.1 295 16.7 100630 92
2002-07-09 05:52 51°28.048 2°48.109 1.7 248 16.7 100630 92
2002-07-09 05:53 51°28.333 2°48.078 1 255 16.7 100620 92
2002-07-09 05:54 51°28.553 2°48.056 1.2 242 16.7 100620 92
2002-07-09 06:44 51°34.818 2°47.453 6.6 151 16.6 100540 91
2002-07-09 06:45 51°34.808 2°47.453 7.2 149 16.6 100550 91
2002-07-09 06:46 51°34.798 2°47.449 7 142 16.5 100540 91
2002-07-09 06:47 51°34.79 2°47.448 5.9 137 16.5 100540 91
2002-07-09 06:48 51°34.782 2°47.45 5.9 134 16.6 100540 91
2002-07-09 06:49 51°34.779 2°47.45 7.1 112 16.5 100550 91
2002-07-09 06:50 51°34.782 2°47.449 5.9 109 16.6 100550 91
2002-07-09 06:51 51°34.787 2°47.449 6.7 119 16.6 100550 91
2002-07-09 06:52 51°34.79 2°47.455 6.5 114 16.6 100550 91
2002-07-09 06:53 51°34.793 2°47.463 6.1 120 16.6 100550 91
2002-07-09 06:54 51°34.799 2°47.468 6.8 98 16.6 100550 91
2002-07-09 06:55 51°34.808 2°47.465 6.3 83 16.6 100550 91
2002-07-09 06:56 51°34.821 2°47.455 5.8 77 16.6 100550 91
2002-07-09 06:57 51°34.836 2°47.435 5.7 52 16.6 100550 91
2002-07-09 06:58 51°34.849 2°47.405 5.7 64 16.7 100550 91
2002-07-09 06:59 51°34.86 2°47.393 4.8 103 16.7 100540 91
2002-07-09 07:00 51°34.863 2°47.396 6.9 129 16.7 100550 91
2002-07-09 07:01 51°34.856 2°47.405 7.5 150 16.7 100540 91
2002-07-09 07:02 51°34.841 2°47.414 7.6 161 16.7 100540 91
2002-07-09 07:03 51°34.822 2°47.424 7.3 165 16.7 100540 91
2002-07-09 07:04 51°34.808 2°47.435 6.5 138 16.7 100540 91
2002-07-09 07:05 51°34.802 2°47.445 6.7 117 16.7 100540 91
2002-07-09 07:06 51°34.802 2°47.449 6.2 109 16.7 100540 91
2002-07-09 07:07 51°34.808 2°47.445 6.6 91 16.7 100540 91
2002-07-09 07:08 51°34.818 2°47.442 6 101 16.7 100540 91
2002-07-09 07:09 51°34.829 2°47.446 5.6 104 16.7 100530 91
2002-07-09 07:10 51°34.837 2°47.456 6.5 112 16.7 100530 91
2002-07-09 07:11 51°34.841 2°47.464 6.8 120 16.7 100530 90
2002-07-09 07:12 51°34.839 2°47.468 6.9 127 16.7 100530 90
2002-07-09 07:13 51°34.833 2°47.467 6.6 132 16.7 100530 90
2002-07-09 07:14 51°34.843 2°47.557 8.2 188 16.7 100520 90
2002-07-09 07:15 51°34.752 2°47.847 14 210 16.7 100510 90
2002-07-09 07:16 51°34.622 2°48.149 14 206 16.8 100500 90
2002-07-09 07:17 51°34.488 2°48.448 14.5 211 16.8 100510 90
2002-07-09 07:18 51°34.355 2°48.744 13.7 211 16.9 100510 90
2002-07-09 07:19 51°34.226 2°49.045 14.9 216 16.9 100510 90
2002-07-09 07:20 51°34.092 2°49.339 12.7 214 16.9 100510 90
2002-07-09 07:21 51°33.961 2°49.631 13.5 216 16.9 100510 90
2002-07-09 07:22 51°33.831 2°49.92 14.3 211 16.9 100510 90
2002-07-09 07:23 51°33.703 2°50.209 12.7 213 16.9 100510 90
2002-07-09 07:24 51°33.575 2°50.5 14.3 216 16.9 100510 90
2002-07-09 07:25 51°33.449 2°50.793 13.7 214 16.9 100520 90
2002-07-09 07:26 51°33.323 2°51.089 12.6 211 17 100520 90
2002-07-09 07:27 51°33.196 2°51.385 13.3 211 17 100520 90
2002-07-09 07:28 51°33.062 2°51.674 14 215 16.9 100520 90
2002-07-09 07:29 51°32.917 2°51.954 12.9 208 17 100530 90
2002-07-09 07:30 51°32.788 2°52.25 13.6 210 17 100520 90
2002-07-09 07:31 51°32.661 2°52.548 12.8 211 17 100520 90
2002-07-09 07:32 51°32.534 2°52.846 12.9 209 17 100530 89
2002-07-09 07:33 51°32.402 2°53.142 12.7 211 17 100530 89
2002-07-09 07:34 51°32.274 2°53.434 13.4 211 17 100530 89
2002-07-09 07:35 51°32.144 2°53.74 12.1 213 17 100530 89
2002-07-09 07:36 51°32.019 2°54.046 12.1 217 17 100530 89
2002-07-09 07:37 51°31.89 2°54.348 13 218 17.1 100540 89
2002-07-09 07:38 51°31.762 2°54.654 12.5 218 17.1 100540 89
2002-07-09 07:39 51°31.634 2°54.958 12.7 214 17.1 100530 89
2002-07-09 07:40 51°31.508 2°55.266 14.1 216 17.1 100530 89
2002-07-09 07:41 51°31.382 2°55.577 13.6 214 17.1 100530 89
2002-07-09 07:42 51°31.257 2°55.89 13.1 213 17.2 100540 89
2002-07-09 07:43 51°31.133 2°56.202 13.8 213 17.2 100540 89